Time,TemperatureF,DewpointF,PressureIn,WindDirection,WindDirectionDegrees,WindSpeedMPH,WindSpeedGustMPH,Humidity,HourlyPrecipIn,Conditions,Clouds,dailyrainin,SoftwareType,DateUTC
2013-04-18 00:02:00,35.0,32.0,29.84,SW,220,1.0,3.0,90,0.03,,,0.07,,2013-04-18 05:02:00,
2013-04-18 00:12:00,35.0,32.0,29.84,SW,218,0.0,2.0,90,0.03,,,0.08,,2013-04-18 05:12:00,
2013-04-18 00:22:00,35.0,32.0,29.84,SW,218,0.0,2.0,90,0.03,,,0.08,,2013-04-18 05:22:00,
2013-04-18 00:32:00,35.0,32.0,29.82,WNW,298,0.0,2.0,90,0.02,,,0.08,,2013-04-18 05:32:00,
2013-04-18 00:42:00,35.0,32.0,29.82,West,263,0.0,3.0,90,0.01,,,0.08,,2013-04-18 05:42:00,
2013-04-18 00:52:00,35.0,32.0,29.82,West,263,0.0,3.0,90,0.01,,,0.08,,2013-04-18 05:52:00,
2013-04-18 01:02:00,35.0,32.0,29.81,ENE,69,0.0,2.0,90,0.01,,,0.08,,2013-04-18 06:02:00,
2013-04-18 01:12:00,35.0,32.0,29.81,WSW,250,0.0,2.0,90,0.00,,,0.08,,2013-04-18 06:12:00,
2013-04-18 01:22:00,35.0,32.0,29.81,WSW,250,0.0,2.0,90,0.00,,,0.08,,2013-04-18 06:22:00,
2013-04-18 01:32:00,35.0,32.0,29.80,WSW,248,1.0,3.0,90,0.00,,,0.08,,2013-04-18 06:32:00,
2013-04-18 01:42:00,35.0,32.0,29.79,WSW,248,0.0,1.0,90,0.02,,,0.10,,2013-04-18 06:42:00,
2013-04-18 01:52:00,35.0,32.0,29.79,WSW,248,0.0,1.0,90,0.02,,,0.10,,2013-04-18 06:52:00,
2013-04-18 02:02:00,35.0,32.0,29.78,West,280,0.0,0.0,90,0.04,,,0.12,,2013-04-18 07:02:00,
2013-04-18 02:12:00,35.0,32.0,29.76,North,355,0.0,1.0,90,0.05,,,0.13,,2013-04-18 07:12:00,
2013-04-18 02:22:00,35.0,32.0,29.76,North,355,0.0,1.0,90,0.05,,,0.13,,2013-04-18 07:22:00,
2013-04-18 02:32:00,35.0,33.0,29.75,NNW,334,0.0,1.0,91,0.06,,,0.14,,2013-04-18 07:32:00,
2013-04-18 02:42:00,35.0,33.0,29.74,NNE,22,0.0,1.0,91,0.04,,,0.14,,2013-04-18 07:42:00,
2013-04-18 02:52:00,35.0,33.0,29.74,NNE,22,0.0,1.0,91,0.04,,,0.14,,2013-04-18 07:52:00,
2013-04-18 03:02:00,35.0,33.0,29.72,West,259,0.0,2.0,91,0.04,,,0.16,,2013-04-18 08:02:00,
2013-04-18 03:12:00,35.0,33.0,29.72,WNW,286,0.0,2.0,91,0.03,,,0.16,,2013-04-18 08:12:00,
2013-04-18 03:22:00,35.0,33.0,29.72,WNW,286,0.0,2.0,91,0.03,,,0.16,,2013-04-18 08:22:00,
2013-04-18 03:32:00,35.0,33.0,29.73,NNE,26,0.0,2.0,91,0.03,,,0.17,,2013-04-18 08:32:00,
2013-04-18 03:42:00,35.0,33.0,29.73,WNW,294,0.0,1.0,91,0.03,,,0.17,,2013-04-18 08:42:00,
2013-04-18 03:52:00,35.0,33.0,29.73,WNW,294,0.0,1.0,91,0.03,,,0.17,,2013-04-18 08:52:00,
2013-04-18 04:02:00,35.0,33.0,29.72,WNW,294,0.0,0.0,91,0.01,,,0.17,,2013-04-18 09:02:00,
2013-04-18 04:12:00,35.0,33.0,29.71,West,264,0.0,0.0,91,0.01,,,0.17,,2013-04-18 09:12:00,
2013-04-18 04:22:00,35.0,33.0,29.71,West,264,0.0,0.0,91,0.01,,,0.17,,2013-04-18 09:22:00,
2013-04-18 04:32:00,35.0,33.0,29.70,NW,314,0.0,1.0,91,0.01,,,0.18,,2013-04-18 09:32:00,
2013-04-18 04:42:00,35.0,33.0,29.68,NNW,327,0.0,2.0,91,0.01,,,0.18,,2013-04-18 09:42:00,
2013-04-18 04:53:00,35.0,33.0,29.68,NNW,327,0.0,2.0,91,0.01,,,0.18,,2013-04-18 09:53:00,
2013-04-18 05:03:00,35.0,33.0,29.67,North,9,2.0,7.0,91,0.01,,,0.18,,2013-04-18 10:03:00,
2013-04-18 05:12:00,35.0,33.0,29.67,North,9,2.0,7.0,91,0.01,,,0.18,,2013-04-18 10:12:00,
2013-04-18 05:23:00,35.0,33.0,29.67,NNW,327,1.0,5.0,91,0.01,,,0.18,,2013-04-18 10:23:00,
2013-04-18 05:32:00,35.0,33.0,29.67,NNW,346,1.0,7.0,91,0.01,,,0.19,,2013-04-18 10:32:00,
2013-04-18 05:42:00,35.0,33.0,29.67,NNW,346,1.0,7.0,91,0.01,,,0.19,,2013-04-18 10:42:00,
2013-04-18 05:52:00,35.0,33.0,29.67,NNE,17,0.0,3.0,91,0.01,,,0.19,,2013-04-18 10:52:00,
2013-04-18 06:02:00,35.0,33.0,29.67,North,5,1.0,3.0,91,0.02,,,0.20,,2013-04-18 11:02:00,
2013-04-18 06:12:00,35.0,33.0,29.67,NNE,17,3.0,8.0,91,0.02,,,0.20,,2013-04-18 11:12:00,
2013-04-18 06:22:00,35.0,33.0,29.67,NNE,17,3.0,8.0,91,0.02,,,0.20,,2013-04-18 11:22:00,
2013-04-18 06:32:00,35.0,33.0,29.67,North,9,0.0,3.0,91,0.01,,,0.20,,2013-04-18 11:32:00,
2013-04-18 06:42:00,35.0,33.0,29.67,North,9,0.0,3.0,91,0.01,,,0.20,,2013-04-18 11:42:00,
2013-04-18 06:52:00,35.0,33.0,29.67,North,350,2.0,7.0,91,0.01,,,0.20,,2013-04-18 11:52:00,
2013-04-18 07:02:00,35.0,33.0,29.69,North,11,2.0,7.0,91,0.00,,,0.20,,2013-04-18 12:02:00,
2013-04-18 07:12:00,35.0,33.0,29.68,NNE,27,2.0,9.0,91,0.00,,,0.20,,2013-04-18 12:12:00,
2013-04-18 07:22:00,35.0,33.0,29.68,NNE,27,2.0,9.0,91,0.00,,,0.20,,2013-04-18 12:22:00,
2013-04-18 07:32:00,35.0,33.0,29.67,North,355,1.0,5.0,91,0.00,,,0.20,,2013-04-18 12:32:00,
2013-04-18 07:42:00,35.0,33.0,29.67,North,355,1.0,5.0,91,0.00,,,0.20,,2013-04-18 12:42:00,
2013-04-18 07:52:00,34.0,32.0,29.67,North,5,2.0,7.0,91,0.00,,,0.20,,2013-04-18 12:52:00,
2013-04-18 08:02:00,34.0,32.0,29.69,NNE,13,2.0,6.0,91,0.00,,,0.20,,2013-04-18 13:02:00,
2013-04-18 08:12:00,35.0,33.0,29.67,SW,233,1.0,3.0,91,0.00,,,0.20,,2013-04-18 13:12:00,
2013-04-18 08:22:00,35.0,33.0,29.67,SW,233,1.0,3.0,91,0.00,,,0.20,,2013-04-18 13:22:00,
2013-04-18 08:32:00,35.0,33.0,29.66,NNW,338,0.0,3.0,91,0.00,,,0.20,,2013-04-18 13:32:00,
2013-04-18 08:42:00,34.0,32.0,29.55,WSW,246,3.0,6.0,91,0.00,,,0.20,,2013-04-18 13:42:00,
2013-04-18 08:53:00,34.0,32.0,29.55,WSW,246,3.0,6.0,91,0.00,,,0.20,,2013-04-18 13:53:00,
2013-04-18 09:02:00,35.0,33.0,29.62,West,279,2.0,3.0,91,0.01,,,0.21,,2013-04-18 14:02:00,
2013-04-18 09:12:00,35.0,33.0,29.60,NNE,19,2.0,5.0,91,0.01,,,0.21,,2013-04-18 14:12:00,
2013-04-18 09:22:00,35.0,33.0,29.60,NNE,19,2.0,5.0,91,0.01,,,0.21,,2013-04-18 14:22:00,
2013-04-18 09:32:00,35.0,33.0,29.57,North,355,2.0,5.0,91,0.01,,,0.21,,2013-04-18 14:32:00,
2013-04-18 09:42:00,35.0,33.0,29.58,NE,39,1.0,6.0,91,0.01,,,0.21,,2013-04-18 14:42:00,
2013-04-18 09:52:00,35.0,33.0,29.58,NE,39,1.0,6.0,91,0.01,,,0.21,,2013-04-18 14:52:00,
2013-04-18 10:02:00,35.0,32.0,29.59,NNE,29,1.0,6.0,90,0.00,,,0.21,,2013-04-18 15:02:00,
2013-04-18 10:12:00,35.0,32.0,29.59,NNE,29,1.0,6.0,90,0.00,,,0.21,,2013-04-18 15:12:00,
2013-04-18 10:22:00,36.0,33.0,29.58,NNW,336,0.0,3.0,90,0.00,,,0.21,,2013-04-18 15:22:00,
2013-04-18 10:33:00,36.0,33.0,29.56,NW,310,1.0,5.0,89,0.00,,,0.21,,2013-04-18 15:33:00,
2013-04-18 10:42:00,36.0,33.0,29.59,North,5,1.0,5.0,89,0.00,,,0.21,,2013-04-18 15:42:00,
2013-04-18 10:53:00,36.0,33.0,29.59,North,5,1.0,5.0,89,0.00,,,0.21,,2013-04-18 15:53:00,
2013-04-18 11:03:00,36.0,33.0,29.59,NNW,348,0.0,3.0,89,0.00,,,0.21,,2013-04-18 16:03:00,
2013-04-18 11:13:00,36.0,33.0,29.58,ENE,67,1.0,3.0,89,0.00,,,0.21,,2013-04-18 16:13:00,
2013-04-18 11:23:00,36.0,33.0,29.58,ENE,67,1.0,3.0,89,0.00,,,0.21,,2013-04-18 16:23:00,
2013-04-18 11:33:00,36.0,33.0,29.57,North,5,2.0,8.0,88,0.00,,,0.21,,2013-04-18 16:33:00,
2013-04-18 11:42:00,36.0,33.0,29.55,NNE,26,2.0,7.0,87,0.00,,,0.21,,2013-04-18 16:42:00,
2013-04-18 11:53:00,36.0,33.0,29.55,NNE,26,2.0,7.0,87,0.00,,,0.21,,2013-04-18 16:53:00,
2013-04-18 12:02:00,37.0,34.0,29.57,NW,321,0.0,2.0,87,0.00,,,0.21,,2013-04-18 17:02:00,
2013-04-18 12:12:00,37.0,34.0,29.57,North,5,1.0,3.0,87,0.00,,,0.21,,2013-04-18 17:12:00,
2013-04-18 12:22:00,37.0,34.0,29.57,North,5,1.0,3.0,87,0.00,,,0.21,,2013-04-18 17:22:00,
2013-04-18 12:33:00,37.0,33.0,29.55,NNW,340,1.0,3.0,86,0.00,,,0.21,,2013-04-18 17:33:00,
2013-04-18 12:42:00,37.0,33.0,29.54,North,0,2.0,7.0,86,0.00,,,0.21,,2013-04-18 17:42:00,
2013-04-18 12:52:00,37.0,33.0,29.54,North,0,2.0,7.0,86,0.00,,,0.21,,2013-04-18 17:52:00,
2013-04-18 13:02:00,37.0,33.0,29.53,WSW,238,1.0,3.0,86,0.00,,,0.21,,2013-04-18 18:02:00,
2013-04-18 13:12:00,37.0,33.0,29.51,WSW,258,2.0,6.0,85,0.00,,,0.21,,2013-04-18 18:12:00,
2013-04-18 13:22:00,37.0,33.0,29.51,WSW,258,2.0,6.0,85,0.00,,,0.21,,2013-04-18 18:22:00,
2013-04-18 13:32:00,38.0,34.0,29.49,West,272,2.0,5.0,85,0.00,,,0.21,,2013-04-18 18:32:00,
2013-04-18 13:42:00,37.0,33.0,29.49,WSW,244,1.0,6.0,85,0.00,,,0.21,,2013-04-18 18:42:00,
2013-04-18 13:52:00,37.0,33.0,29.49,WSW,244,1.0,6.0,85,0.00,,,0.21,,2013-04-18 18:52:00,
2013-04-18 14:02:00,37.0,33.0,29.50,East,96,1.0,3.0,85,0.00,,,0.20,,2013-04-18 19:02:00,
2013-04-18 14:12:00,37.0,33.0,29.50,East,96,1.0,3.0,85,0.00,,,0.20,,2013-04-18 19:12:00,
2013-04-18 14:22:00,37.0,33.0,29.49,WSW,246,1.0,3.0,86,0.00,,,0.20,,2013-04-18 19:22:00,
2013-04-18 14:32:00,37.0,33.0,29.49,West,274,1.0,5.0,86,0.00,,,0.20,,2013-04-18 19:32:00,
2013-04-18 14:42:00,37.0,33.0,29.49,West,274,1.0,5.0,86,0.00,,,0.20,,2013-04-18 19:42:00,
2013-04-18 14:53:00,37.0,34.0,29.47,SSW,201,1.0,3.0,88,0.00,,,0.20,,2013-04-18 19:53:00,
2013-04-18 15:02:00,36.0,33.0,29.47,WSW,237,0.0,3.0,89,0.03,,,0.23,,2013-04-18 20:02:00,
2013-04-18 15:12:00,36.0,33.0,29.46,WNW,292,1.0,5.0,90,0.06,,,0.26,,2013-04-18 20:12:00,
2013-04-18 15:22:00,36.0,33.0,29.46,WNW,292,1.0,5.0,90,0.06,,,0.26,,2013-04-18 20:22:00,
2013-04-18 15:32:00,36.0,33.0,29.42,West,261,1.0,3.0,90,0.07,,,0.27,,2013-04-18 20:32:00,
2013-04-18 15:42:00,36.0,33.0,29.41,NW,319,2.0,5.0,90,0.08,,,0.28,,2013-04-18 20:42:00,
2013-04-18 15:52:00,36.0,33.0,29.41,NW,319,2.0,5.0,90,0.08,,,0.28,,2013-04-18 20:52:00,
2013-04-18 16:02:00,36.0,34.0,29.39,WNW,302,0.0,3.0,91,0.05,,,0.28,,2013-04-18 21:02:00,
2013-04-18 16:12:00,36.0,34.0,29.38,NE,35,0.0,3.0,91,0.04,,,0.30,,2013-04-18 21:12:00,
2013-04-18 16:22:00,36.0,34.0,29.38,NE,35,0.0,3.0,91,0.04,,,0.30,,2013-04-18 21:22:00,
2013-04-18 16:32:00,36.0,34.0,29.36,West,263,2.0,5.0,91,0.06,,,0.33,,2013-04-18 21:32:00,
2013-04-18 16:43:00,36.0,34.0,29.38,WNW,290,0.0,1.0,91,0.05,,,0.33,,2013-04-18 21:43:00,
2013-04-18 16:53:00,36.0,34.0,29.38,WNW,290,0.0,1.0,91,0.05,,,0.33,,2013-04-18 21:53:00,
2013-04-18 17:02:00,36.0,34.0,29.40,WNW,285,0.0,2.0,91,0.07,,,0.35,,2013-04-18 22:02:00,
2013-04-18 17:13:00,36.0,34.0,29.40,NNE,18,0.0,1.0,91,0.07,,,0.37,,2013-04-18 22:13:00,
2013-04-18 17:22:00,36.0,34.0,29.40,NNE,18,0.0,1.0,91,0.07,,,0.37,,2013-04-18 22:22:00,
2013-04-18 17:32:00,36.0,34.0,29.38,NE,36,0.0,3.0,91,0.04,,,0.37,,2013-04-18 22:32:00,
2013-04-18 17:42:00,36.0,34.0,29.38,NNE,25,2.0,5.0,91,0.05,,,0.38,,2013-04-18 22:42:00,
2013-04-18 17:52:00,36.0,34.0,29.38,NNE,25,2.0,5.0,91,0.05,,,0.38,,2013-04-18 22:52:00,
2013-04-18 18:03:00,36.0,34.0,29.36,NNE,18,1.0,3.0,91,0.04,,,0.39,,2013-04-18 23:03:00,
2013-04-18 18:11:00,36.0,34.0,29.36,North,11,2.0,6.0,91,0.02,,,0.39,,2013-04-18 23:11:00,
2013-04-18 18:21:00,36.0,34.0,29.36,North,11,2.0,6.0,91,0.02,,,0.39,,2013-04-18 23:21:00,
2013-04-18 18:32:00,36.0,34.0,29.35,NNE,23,3.0,7.0,91,0.04,,,0.41,,2013-04-18 23:32:00,
2013-04-18 18:42:00,35.0,33.0,29.36,North,351,2.0,8.0,91,0.03,,,0.41,,2013-04-18 23:42:00,
2013-04-18 18:52:00,35.0,33.0,29.36,North,351,2.0,8.0,91,0.03,,,0.41,,2013-04-18 23:52:00,
2013-04-18 19:01:00,35.0,33.0,29.35,North,11,3.0,6.0,91,0.05,,,0.44,,2013-04-19 00:01:00,
2013-04-18 19:12:00,35.0,33.0,29.34,NNE,29,2.0,6.0,91,0.07,,,0.46,,2013-04-19 00:12:00,
2013-04-18 19:21:00,35.0,33.0,29.34,NNE,29,2.0,6.0,91,0.07,,,0.46,,2013-04-19 00:21:00,
2013-04-18 19:32:00,35.0,33.0,29.33,NNE,30,2.0,9.0,91,0.05,,,0.46,,2013-04-19 00:32:00,
2013-04-18 19:42:00,35.0,33.0,29.32,NNE,27,2.0,7.0,91,0.05,,,0.46,,2013-04-19 00:42:00,
2013-04-18 19:52:00,35.0,33.0,29.32,NNE,27,2.0,7.0,91,0.05,,,0.46,,2013-04-19 00:52:00,
2013-04-18 20:01:00,35.0,33.0,29.32,NNE,24,2.0,6.0,91,0.02,,,0.46,,2013-04-19 01:01:00,
2013-04-18 20:11:00,35.0,33.0,29.32,NNE,24,2.0,6.0,91,0.02,,,0.46,,2013-04-19 01:11:00,
2013-04-18 20:21:00,34.0,32.0,29.32,NNE,12,1.0,6.0,91,0.01,,,0.47,,2013-04-19 01:21:00,
2013-04-18 20:31:00,34.0,32.0,29.32,NNE,21,2.0,5.0,91,0.01,,,0.47,,2013-04-19 01:31:00,
2013-04-18 20:42:00,34.0,32.0,29.32,NNE,14,3.0,8.0,91,0.01,,,0.47,,2013-04-19 01:42:00,
2013-04-18 20:52:00,34.0,32.0,29.32,NNE,14,3.0,8.0,91,0.01,,,0.47,,2013-04-19 01:52:00,
2013-04-18 21:01:00,34.0,32.0,29.32,NNE,29,0.0,3.0,91,0.01,,,0.47,,2013-04-19 02:01:00,
2013-04-18 21:11:00,34.0,32.0,29.32,NNE,29,0.0,3.0,91,0.01,,,0.47,,2013-04-19 02:11:00,
2013-04-18 21:21:00,33.0,31.0,29.32,North,6,0.0,5.0,91,0.00,,,0.47,,2013-04-19 02:21:00,
2013-04-18 21:32:00,33.0,31.0,29.33,NNE,19,0.0,2.0,91,0.00,,,0.47,,2013-04-19 02:32:00,
2013-04-18 21:42:00,33.0,31.0,29.32,NNE,26,1.0,3.0,91,0.01,,,0.48,,2013-04-19 02:42:00,
2013-04-18 21:52:00,33.0,31.0,29.32,NNE,26,1.0,3.0,91,0.01,,,0.48,,2013-04-19 02:52:00,
2013-04-18 22:01:00,33.0,31.0,29.33,NE,36,0.0,0.0,91,0.01,,,0.48,,2013-04-19 03:01:00,
2013-04-18 22:11:00,33.0,31.0,29.32,NNE,25,0.0,1.0,91,0.01,,,0.48,,2013-04-19 03:11:00,
2013-04-18 22:21:00,33.0,31.0,29.32,NNE,25,0.0,1.0,91,0.01,,,0.48,,2013-04-19 03:21:00,
2013-04-18 22:32:00,33.0,31.0,29.32,NNW,331,0.0,0.0,91,0.01,,,0.47,,2013-04-19 03:32:00,
2013-04-18 22:43:00,33.0,31.0,29.32,North,350,0.0,0.0,91,0.00,,,0.47,,2013-04-19 03:43:00,
2013-04-18 22:53:00,33.0,31.0,29.32,North,350,0.0,0.0,91,0.00,,,0.47,,2013-04-19 03:53:00,
2013-04-18 23:03:00,32.0,30.0,29.31,ENE,67,0.0,1.0,91,0.00,,,0.45,,2013-04-19 04:03:00,
2013-04-18 23:13:00,32.0,30.0,29.30,WNW,303,0.0,3.0,91,0.00,,,0.44,,2013-04-19 04:13:00,
2013-04-18 23:23:00,32.0,30.0,29.30,WNW,303,0.0,3.0,91,0.00,,,0.44,,2013-04-19 04:23:00,
2013-04-18 23:33:00,32.0,30.0,29.29,SSW,211,0.0,1.0,91,0.00,,,0.43,,2013-04-19 04:33:00,
2013-04-18 23:43:00,32.0,30.0,29.28,West,270,0.0,1.0,91,0.00,,,0.42,,2013-04-19 04:43:00,
2013-04-18 23:52:00,32.0,30.0,29.28,West,270,0.0,1.0,91,0.00,,,0.42,,2013-04-19 04:52:00,